Kendrick, ID

4:16 AM PDT on August 20, 2014 (GMT -0700)
Linden, Idaho (Cedar Ridge) | Change Station
CLOSE
Current Station
Personal Weather Station
Location: Kendrick, ID
Elevation: 2707 ft
Nearby Weather Stations

Elev 2707 ft 46.69 °N, 116.50 °W | Updated 2 seconds ago

Mostly Cloudy
Mostly Cloudy
64.0 °F
Feels Like 64.0 °F
N
0.0
Wind Variable Wind from WNW
Gusts 1.0 mph

Today
High -- | Low -- °F
--% Chance of Precip.
Yesterday
High -- | Low -- °F
Precip. -- in
5:51 AM 7:47 PM
Waning Crescent, 22% visible
Pressure 29.75 in
Visibility 10.0 miles
Clouds Mostly Cloudy 11000 ft
Dew Point 50 °F
Humidity 60%
Rainfall 0.00 in
Snow Depth Not available.
UV 0 out of 12
Pollen 7.40 out of 12
Air Quality Not available.
Flu Activity Not available.
METAR KPUW 201053Z AUTO 25010G18KT 10SM BKN110 19/11 A2980 RMK AO2 SLP072 T01890111

More Conditions Fewer Conditions

Pressure 29.75 in
Visibility 10.0 miles
Clouds Mostly Cloudy 11000 ft
Dew Point 50 °F
Humidity 60%
Rainfall 0.00 in
Snow Depth Not available.
UV 0 out of 12
Pollen 7.40 out of 12
Air Quality Not available.
Flu Activity Not available.
METAR KPUW 201053Z AUTO 25010G18KT 10SM BKN110 19/11 A2980 RMK AO2 SLP072 T01890111

More Conditions Fewer Conditions

10-Day Weather Forecast

Almanac

Astronomy

Aug. 20, 2014 Rise Set
Actual Time 5:51 AM PDT 7:47 PM PDT
Civil Twilight 5:18 AM PDT 8:19 PM PDT
Nautical Twilight 4:38 AM PDT 8:59 PM PDT
Astronomical Twilight 3:54 AM PDT 9:43 PM PDT
Moon 1:28 AM PDT 4:42 PM PDT
Length of Visible Light 15h 01m
Length of Day
13h 56m
Tomorrow will be 3m 3s shorter.
Waning Crescent, 22% of the Moon is Illuminated
Today
Waning Crescent
Aug 25
New
Sep 2
First Quarter
Sep 8
Full
Sep 15
Last Quarter

Today's Extremes

State Highs State Lows

Community

WunderPhotos

Upload Photos

1,745,609 photos uploaded!

Nearby

Snow Depth

Station Depth Elevation
Moscow Mountain 0 in 4700 ft
Sherwin 0 in 3200 ft
Mica Creek 0 in 4750 ft
Lost Lake 0 in 6110 ft
Humboldt Gulch 1 in 4250 ft

Earthquake Activity

City Distance Mag. Time & Date
No recent earthquake activity has been reported nearby.
Minimum magnitude displayed is 2.5.

Coastal Water Temperatures

Place Temperature
No Stations Reporting

Nearby Weather Stations